createdAt,value
2018-06-18T00:01:40.068Z,99.90
2018-06-18T00:04:09.771Z,99.90
2018-06-18T00:06:38.959Z,99.90
2018-06-18T00:12:01.517Z,99.90
2018-06-18T00:14:30.687Z,99.90
2018-06-18T00:16:59.868Z,99.90
2018-06-18T00:19:29.064Z,99.90
2018-06-18T00:25:01.492Z,99.90
2018-06-18T00:27:30.665Z,99.90
2018-06-18T00:29:59.838Z,99.90
2018-06-18T00:32:29.113Z,99.90
2018-06-18T00:34:58.287Z,99.90
2018-06-18T00:40:27.942Z,99.90
2018-06-18T00:42:57.110Z,99.90
2018-06-18T00:45:26.581Z,99.90
2018-06-18T00:47:55.820Z,99.90
2018-06-18T00:53:25.128Z,99.90
2018-06-18T00:56:11.249Z,99.90
2018-06-18T00:58:40.898Z,99.90
2018-06-18T01:01:10.669Z,99.90
2018-06-18T01:03:39.886Z,99.90
2018-06-18T01:06:09.308Z,99.90
2018-06-18T01:08:38.479Z,99.90
2018-06-18T01:11:07.635Z,99.90
2018-06-18T01:13:36.873Z,99.90
2018-06-18T01:16:06.045Z,99.90
2018-06-18T01:24:47.820Z,99.90
2018-06-18T01:27:16.967Z,99.90
2018-06-18T01:29:46.122Z,99.90
2018-06-18T01:35:15.789Z,99.90
2018-06-18T01:37:44.970Z,99.90
2018-06-18T01:40:14.165Z,99.90
2018-06-18T01:42:43.420Z,99.90
2018-06-18T01:45:12.607Z,99.90
2018-06-18T01:50:41.897Z,99.90
2018-06-18T01:55:40.057Z,99.90
2018-06-18T01:58:09.248Z,99.90
2018-06-18T02:00:38.415Z,99.90
2018-06-18T02:03:07.582Z,99.90
2018-06-18T02:05:36.858Z,99.90
2018-06-18T02:08:06.048Z,99.90
2018-06-18T02:10:35.209Z,99.90
2018-06-18T02:13:04.429Z,99.90
2018-06-18T02:15:58.253Z,99.90
2018-06-18T02:18:27.450Z,99.90
2018-06-18T02:20:56.629Z,99.90
2018-06-18T02:23:25.789Z,99.90
2018-06-18T02:25:54.987Z,99.90
2018-06-18T02:31:29.718Z,99.90
2018-06-18T02:34:04.204Z,99.90
2018-06-18T02:36:38.824Z,99.90
2018-06-18T02:39:09.880Z,99.90
2018-06-18T02:41:39.186Z,99.90
2018-06-18T02:44:08.495Z,99.90
2018-06-18T02:47:00.436Z,99.90
2018-06-18T02:49:29.624Z,99.90
2018-06-18T02:51:59.114Z,99.90
2018-06-18T02:54:28.297Z,99.90
2018-06-18T02:57:07.733Z,99.90
2018-06-18T02:59:36.938Z,99.90
2018-06-18T03:02:06.146Z,99.90
2018-06-18T03:04:35.301Z,99.90
2018-06-18T03:07:04.510Z,99.90
2018-06-18T03:09:33.667Z,99.90
2018-06-18T03:12:02.835Z,99.90
2018-06-18T03:14:57.964Z,99.90
2018-06-18T03:17:27.121Z,99.90
2018-06-18T03:21:03.738Z,99.90
2018-06-18T03:34:19.326Z,99.90
2018-06-18T03:36:48.657Z,99.90
2018-06-18T03:41:49.724Z,99.90
2018-06-18T03:44:33.845Z,99.90
2018-06-18T03:47:26.836Z,99.90
2018-06-18T03:49:56.226Z,99.90
2018-06-18T03:52:25.753Z,99.90
2018-06-18T03:55:00.480Z,99.90
2018-06-18T03:57:29.657Z,99.90
2018-06-18T03:59:58.825Z,99.90
2018-06-18T04:05:18.526Z,99.90
2018-06-18T04:08:01.597Z,99.90
2018-06-18T04:10:39.420Z,99.90
2018-06-18T04:13:09.221Z,99.90
2018-06-18T04:15:38.418Z,99.90
2018-06-18T04:18:07.671Z,99.90
2018-06-18T04:21:00.233Z,99.90
2018-06-18T04:26:30.127Z,99.90
2018-06-18T04:28:59.333Z,99.90
2018-06-18T04:31:28.491Z,99.90
2018-06-18T04:44:29.964Z,99.90
2018-06-18T04:47:04.628Z,99.90
2018-06-18T04:49:58.733Z,99.90
2018-06-18T04:55:28.463Z,99.90
2018-06-18T04:57:57.613Z,99.90
2018-06-18T05:00:42.713Z,99.90
2018-06-18T05:03:11.882Z,99.90
2018-06-18T05:05:41.054Z,99.90
2018-06-18T05:10:24.563Z,99.90
2018-06-18T05:12:54.015Z,99.90
2018-06-18T05:15:28.780Z,99.90
2018-06-18T05:18:00.199Z,99.90
2018-06-18T05:20:29.576Z,99.90
2018-06-18T05:22:58.784Z,99.90
2018-06-18T05:28:04.429Z,99.90
2018-06-18T05:33:34.003Z,99.90
2018-06-18T05:36:03.161Z,99.90
2018-06-18T05:41:03.661Z,99.90
2018-06-18T05:43:33.049Z,99.90
2018-06-18T05:46:02.246Z,99.90
2018-06-18T05:48:57.896Z,99.90
2018-06-18T05:51:27.097Z,99.90
2018-06-18T05:53:56.270Z,99.90
2018-06-18T05:56:25.479Z,99.90
2018-06-18T05:59:00.211Z,99.90
2018-06-18T06:01:29.361Z,99.90
2018-06-18T06:06:58.735Z,99.90
2018-06-18T06:09:27.900Z,99.90
2018-06-18T06:18:00.780Z,99.90
2018-06-18T06:20:59.757Z,99.90
2018-06-18T06:26:29.291Z,99.90
2018-06-18T06:28:58.458Z,99.90
2018-06-18T06:39:14.929Z,99.90
2018-06-18T07:02:44.289Z,99.90
2018-06-18T07:14:13.805Z,99.90
2018-06-18T07:26:00.507Z,99.90
2018-06-18T07:31:58.616Z,99.90
2018-06-18T07:44:16.148Z,99.90
2018-06-18T09:00:06.088Z,99.90
2018-06-18T09:02:59.857Z,99.90
2018-06-18T09:05:57.926Z,99.90
2018-06-18T09:23:58.236Z,99.90
2018-06-18T09:35:58.007Z,99.90
2018-06-18T09:56:58.646Z,99.90
2018-06-18T10:13:04.282Z,99.90
2018-06-18T10:15:58.403Z,99.90
2018-06-18T10:19:14.826Z,99.90
2018-06-18T10:27:44.910Z,97.80
2018-06-18T10:30:14.065Z,99.90
2018-06-18T10:32:48.721Z,99.30
2018-06-18T10:35:23.313Z,95.60
2018-06-18T10:37:57.889Z,97.10
2018-06-18T10:40:32.451Z,97.50
2018-06-18T10:43:06.987Z,96.10
2018-06-18T10:45:36.182Z,95.50
2018-06-18T11:00:34.687Z,96.30
2018-06-18T11:03:03.953Z,95.60
2018-06-18T11:05:58.849Z,88.80
2018-06-18T11:08:46.695Z,84.70
2018-06-18T11:11:15.931Z,87.10
2018-06-18T11:14:01.240Z,87.20
2018-06-18T11:16:30.737Z,90.80
2018-06-18T11:19:06.124Z,91.00
2018-06-18T11:22:00.535Z,87.00
2018-06-18T11:27:23.805Z,86.90
2018-06-18T11:33:00.433Z,83.00
2018-06-18T11:38:48.754Z,87.80
2018-06-18T11:41:17.948Z,79.50
2018-06-18T12:18:59.410Z,74.20
2018-06-18T12:21:48.870Z,74.50
2018-06-18T12:48:46.525Z,79.40
2018-06-18T12:51:21.022Z,79.50
2018-06-18T13:08:49.741Z,75.70
2018-06-18T13:11:18.923Z,75.40
2018-06-18T13:20:01.468Z,74.90
2018-06-18T13:28:51.212Z,75.60
2018-06-18T13:31:20.369Z,74.30
2018-06-18T13:34:01.631Z,75.90
2018-06-18T13:36:59.857Z,75.00
2018-06-18T13:48:58.227Z,73.80
2018-06-18T14:11:05.623Z,72.50
2018-06-18T14:32:00.542Z,66.30
2018-06-18T14:34:59.066Z,70.20
2018-06-18T14:55:58.285Z,70.20
2018-06-18T15:13:57.706Z,68.60
2018-06-18T15:54:59.429Z,64.90
2018-06-18T15:57:38.369Z,62.50
2018-06-18T16:15:01.789Z,60.60
2018-06-18T16:29:59.234Z,62.20
2018-06-18T17:17:18.138Z,69.00
2018-06-18T17:29:00.695Z,66.10
2018-06-18T17:37:24.437Z,68.20
2018-06-18T17:40:00.875Z,69.20
2018-06-18T18:06:59.804Z,69.10
2018-06-18T18:18:59.398Z,70.10
2018-06-18T18:31:00.991Z,71.10
2018-06-18T18:39:59.295Z,71.50
2018-06-18T19:03:58.421Z,74.90
2018-06-18T19:23:24.053Z,76.90
2018-06-18T19:25:53.357Z,80.40
2018-06-18T19:59:03.061Z,82.30
2018-06-18T20:01:59.285Z,82.50
2018-06-18T20:19:59.185Z,83.80
2018-06-18T20:40:59.065Z,85.10
2018-06-18T22:23:15.088Z,91.00
2018-06-18T22:25:44.250Z,91.10
2018-06-18T22:28:37.285Z,91.20
2018-06-18T22:31:06.512Z,91.20
2018-06-18T22:33:35.841Z,91.30
2018-06-18T22:36:05.059Z,91.30
2018-06-18T22:38:59.062Z,91.50
2018-06-18T22:41:28.253Z,91.40
2018-06-18T22:44:03.014Z,91.60
2018-06-18T22:46:59.227Z,91.80
2018-06-18T22:49:28.401Z,91.90
2018-06-18T22:51:57.548Z,92.00
2018-06-18T22:54:26.744Z,92.00
2018-06-18T22:56:56.238Z,91.70
2018-06-18T22:59:25.442Z,92.10
2018-06-18T23:01:55.053Z,92.20
2018-06-18T23:06:01.014Z,92.30
2018-06-18T23:08:30.185Z,92.30
2018-06-18T23:10:59.350Z,92.40
2018-06-18T23:16:28.814Z,92.10
2018-06-18T23:18:58.049Z,92.20
2018-06-18T23:21:27.205Z,92.70
2018-06-18T23:23:56.365Z,92.60
2018-06-18T23:26:25.681Z,92.30
2018-06-18T23:29:04.462Z,92.60
2018-06-18T23:31:33.668Z,91.80
2018-06-18T23:34:02.854Z,92.20
2018-06-18T23:36:32.145Z,92.30
2018-06-18T23:39:01.327Z,93.80
2018-06-18T23:41:32.887Z,93.90
2018-06-18T23:44:02.045Z,92.60
2018-06-18T23:46:58.986Z,92.70
2018-06-18T23:52:28.039Z,92.80
2018-06-18T23:55:03.586Z,93.10
2018-06-18T23:57:32.782Z,93.00
